createdAt,value
2019-01-31T00:02:12.472Z,13.60
2019-01-31T00:05:12.682Z,12.87
2019-01-31T00:08:05.357Z,11.63
2019-01-31T00:11:04.958Z,12.67
2019-01-31T00:14:17.839Z,10.93
2019-01-31T00:17:27.245Z,10.37
2019-01-31T00:20:28.652Z,11.50
2019-01-31T00:23:34.699Z,12.03
2019-01-31T00:26:50.818Z,11.17
2019-01-31T00:29:54.239Z,12.40
2019-01-31T00:32:56.081Z,11.33
2019-01-31T00:35:52.694Z,10.50
2019-01-31T00:38:38.949Z,11.70
2019-01-31T00:41:51.771Z,11.80
2019-01-31T00:44:57.381Z,12.37
2019-01-31T00:48:13.890Z,11.33
2019-01-31T00:51:38.911Z,12.10
2019-01-31T00:55:01.847Z,11.40
2019-01-31T00:58:04.965Z,11.80
2019-01-31T01:01:11.539Z,11.43
2019-01-31T01:04:12.016Z,12.03
2019-01-31T01:07:20.513Z,11.37
2019-01-31T01:10:42.462Z,10.80
2019-01-31T01:13:13.949Z,9.63
2019-01-31T01:15:44.759Z,9.27
2019-01-31T01:18:56.625Z,10.17
2019-01-31T01:21:54.217Z,10.87
2019-01-31T01:25:10.347Z,11.23
2019-01-31T01:27:58.545Z,11.30
2019-01-31T01:30:53.760Z,11.60
2019-01-31T01:34:24.821Z,10.87
2019-01-31T01:37:01.494Z,10.33
2019-01-31T01:40:07.040Z,10.60
2019-01-31T01:43:00.727Z,10.70
2019-01-31T01:46:13.003Z,10.43
2019-01-31T01:48:46.979Z,10.47
2019-01-31T01:51:52.992Z,10.33
2019-01-31T01:54:43.443Z,11.83
2019-01-31T01:57:24.413Z,10.77
2019-01-31T02:00:21.667Z,10.90
2019-01-31T02:03:27.214Z,10.30
2019-01-31T02:06:40.207Z,12.37
2019-01-31T02:10:05.186Z,11.07
2019-01-31T02:13:15.914Z,12.43
2019-01-31T02:16:06.521Z,12.30
2019-01-31T02:18:54.649Z,13.00
2019-01-31T02:21:40.932Z,14.37
2019-01-31T02:24:14.074Z,14.03
2019-01-31T02:27:07.839Z,14.33
2019-01-31T02:29:55.397Z,14.97
2019-01-31T02:33:04.718Z,13.77
2019-01-31T02:35:52.265Z,14.03
2019-01-31T02:39:14.084Z,13.70
2019-01-31T02:42:23.314Z,13.77
2019-01-31T02:45:04.462Z,14.33
2019-01-31T02:48:08.617Z,12.00
2019-01-31T02:51:11.754Z,13.33
2019-01-31T02:54:10.004Z,13.20
2019-01-31T02:57:09.156Z,12.97
2019-01-31T02:59:40.979Z,11.97
2019-01-31T03:02:16.036Z,13.07
2019-01-31T03:05:10.778Z,13.07
2019-01-31T03:07:57.233Z,11.57
2019-01-31T03:10:52.840Z,10.83
2019-01-31T03:13:25.944Z,12.10
2019-01-31T03:16:29.237Z,10.40
2019-01-31T03:19:30.048Z,11.20
2019-01-31T03:22:24.739Z,10.53
2019-01-31T03:25:00.802Z,11.07
2019-01-31T03:27:54.893Z,10.83
2019-01-31T03:31:09.086Z,10.67
2019-01-31T03:34:08.454Z,11.13
2019-01-31T03:36:54.745Z,10.93
2019-01-31T03:39:52.902Z,11.60
2019-01-31T03:42:50.925Z,11.23
2019-01-31T03:46:01.651Z,10.93
2019-01-31T03:48:38.658Z,10.80
2019-01-31T03:51:52.930Z,11.07
2019-01-31T03:54:44.222Z,10.63
2019-01-31T03:57:49.012Z,10.87
2019-01-31T04:00:26.084Z,11.13
2019-01-31T04:03:26.192Z,11.03
2019-01-31T04:06:05.969Z,11.30
2019-01-31T04:08:34.715Z,11.37
2019-01-31T04:11:03.502Z,11.17
2019-01-31T04:13:32.159Z,11.60
2019-01-31T04:16:00.559Z,12.33
2019-01-31T04:18:29.165Z,11.17
2019-01-31T04:20:57.748Z,11.77
2019-01-31T04:23:26.021Z,11.20
2019-01-31T04:25:54.566Z,11.90
2019-01-31T04:28:23.103Z,11.83
2019-01-31T04:30:51.324Z,11.93
2019-01-31T04:33:19.551Z,12.53
2019-01-31T04:35:47.901Z,11.33
2019-01-31T04:38:16.138Z,11.20
2019-01-31T04:40:44.616Z,13.03
2019-01-31T04:43:13.052Z,12.77
2019-01-31T04:45:41.418Z,12.97
2019-01-31T04:48:10.011Z,13.43
2019-01-31T04:50:38.480Z,12.03
2019-01-31T04:53:09.176Z,12.50
2019-01-31T04:55:39.101Z,13.20
2019-01-31T04:58:07.681Z,13.10
2019-01-31T05:00:35.956Z,12.47
2019-01-31T05:03:07.743Z,12.47
2019-01-31T05:05:36.346Z,13.57
2019-01-31T05:08:04.951Z,13.30
2019-01-31T05:10:42.635Z,13.67
2019-01-31T05:13:05.524Z,13.40
2019-01-31T05:15:34.036Z,12.90
2019-01-31T05:18:02.459Z,13.90
2019-01-31T05:20:31.836Z,13.60
2019-01-31T05:23:00.475Z,12.93
2019-01-31T05:25:29.194Z,13.07
2019-01-31T05:27:57.788Z,13.80
2019-01-31T05:30:26.141Z,14.87
2019-01-31T05:32:58.865Z,16.10
2019-01-31T05:35:26.202Z,14.37
2019-01-31T05:37:55.535Z,14.50
2019-01-31T05:40:24.110Z,16.53
2019-01-31T05:42:52.790Z,18.60
2019-01-31T05:45:21.046Z,19.10
2019-01-31T05:47:49.604Z,22.53
2019-01-31T05:50:22.388Z,18.93
2019-01-31T05:52:51.037Z,16.17
2019-01-31T05:55:19.646Z,15.60
2019-01-31T05:57:49.282Z,17.20
2019-01-31T06:00:20.345Z,16.70
2019-01-31T06:02:48.952Z,16.75
2019-01-31T06:05:17.501Z,15.90
2019-01-31T06:07:46.991Z,16.00
2019-01-31T06:10:15.637Z,15.87
2019-01-31T06:12:44.284Z,16.60
2019-01-31T06:15:14.394Z,16.03
2019-01-31T06:17:43.085Z,15.87
2019-01-31T06:20:14.428Z,16.73
2019-01-31T06:22:42.982Z,15.93
2019-01-31T06:25:11.960Z,16.90
2019-01-31T06:27:40.647Z,17.17
2019-01-31T06:30:10.743Z,18.90
2019-01-31T06:32:39.480Z,18.53
2019-01-31T06:35:08.943Z,19.33
2019-01-31T06:37:37.494Z,18.90
2019-01-31T06:40:08.103Z,19.23
2019-01-31T06:42:36.353Z,18.27
2019-01-31T06:45:07.271Z,18.40
2019-01-31T06:47:35.855Z,16.63
2019-01-31T06:50:04.941Z,15.90
2019-01-31T06:52:33.497Z,16.13
2019-01-31T06:55:01.931Z,16.97
2019-01-31T06:57:30.556Z,16.57
2019-01-31T06:59:59.079Z,15.67
2019-01-31T07:02:27.796Z,15.57
2019-01-31T07:04:56.419Z,15.33
2019-01-31T07:07:24.892Z,16.03
2019-01-31T07:09:53.663Z,16.47
2019-01-31T07:12:22.370Z,16.60
2019-01-31T07:14:51.025Z,16.23
2019-01-31T07:17:19.694Z,15.43
2019-01-31T07:19:48.410Z,15.77
2019-01-31T07:22:16.783Z,16.07
2019-01-31T07:24:45.400Z,15.53
2019-01-31T07:27:13.987Z,16.20
2019-01-31T07:29:42.558Z,15.83
2019-01-31T07:32:11.017Z,19.13
2019-01-31T07:34:39.739Z,21.57
2019-01-31T07:37:08.033Z,21.00
2019-01-31T07:39:36.580Z,21.33
2019-01-31T07:42:05.281Z,19.10
2019-01-31T07:44:34.025Z,17.90
2019-01-31T07:47:02.745Z,17.50
2019-01-31T07:49:33.261Z,15.97
2019-01-31T07:52:01.835Z,23.23
2019-01-31T07:54:30.220Z,25.37
2019-01-31T07:56:58.847Z,32.97
2019-01-31T07:59:27.310Z,31.13
2019-01-31T08:01:55.911Z,38.57
2019-01-31T08:04:24.116Z,44.60
2019-01-31T08:06:52.809Z,51.53
2019-01-31T08:09:22.394Z,29.80
2019-01-31T08:11:52.843Z,24.70
2019-01-31T08:14:21.521Z,19.03
2019-01-31T08:16:50.158Z,18.00
2019-01-31T08:19:18.754Z,18.10
2019-01-31T08:21:47.338Z,19.83
2019-01-31T08:24:15.999Z,18.87
2019-01-31T08:26:44.557Z,19.77
2019-01-31T08:29:13.322Z,19.40
2019-01-31T08:31:41.962Z,18.83
2019-01-31T08:34:10.418Z,18.07
2019-01-31T08:36:52.526Z,16.23
2019-01-31T08:39:22.990Z,14.70
2019-01-31T08:41:51.598Z,14.10
2019-01-31T08:44:20.136Z,14.53
2019-01-31T08:46:48.619Z,14.98
2019-01-31T08:49:17.319Z,13.07
2019-01-31T08:51:45.856Z,14.13
2019-01-31T08:54:14.469Z,15.53
2019-01-31T08:56:43.081Z,14.23
2019-01-31T08:59:11.716Z,12.63
2019-01-31T09:01:40.364Z,14.00
2019-01-31T09:04:09.203Z,12.50
2019-01-31T09:06:37.659Z,13.20
2019-01-31T09:09:10.154Z,12.90
2019-01-31T09:11:38.598Z,13.00
2019-01-31T09:14:07.340Z,12.93
2019-01-31T09:16:35.881Z,12.17
2019-01-31T09:19:04.614Z,11.50
2019-01-31T09:22:10.223Z,11.77
2019-01-31T09:25:08.626Z,12.60
2019-01-31T09:30:30.969Z,10.53
2019-01-31T09:33:27.416Z,12.27
2019-01-31T09:36:28.931Z,12.30
2019-01-31T09:39:34.403Z,12.33
2019-01-31T09:42:26.985Z,11.07
2019-01-31T09:45:33.245Z,9.43
2019-01-31T09:48:22.747Z,11.63
2019-01-31T09:51:30.521Z,11.23
2019-01-31T09:54:24.041Z,11.47
2019-01-31T09:57:29.081Z,11.20
2019-01-31T10:00:41.348Z,11.68
2019-01-31T10:03:35.235Z,10.90
2019-01-31T10:06:58.954Z,9.73
2019-01-31T10:09:54.921Z,10.33
2019-01-31T10:12:45.434Z,9.93
2019-01-31T10:16:16.238Z,10.23
2019-01-31T10:19:19.043Z,9.60
2019-01-31T10:22:25.032Z,8.83
2019-01-31T10:25:43.758Z,9.63
2019-01-31T10:29:18.329Z,9.60
2019-01-31T10:32:40.733Z,9.83
2019-01-31T10:35:56.189Z,9.10
2019-01-31T10:38:48.035Z,9.17
2019-01-31T10:41:41.672Z,9.27
2019-01-31T10:44:51.304Z,8.87
2019-01-31T10:48:16.476Z,9.20
2019-01-31T10:51:19.673Z,8.67
2019-01-31T10:54:25.512Z,8.47
2019-01-31T10:57:38.146Z,9.50
2019-01-31T11:00:29.855Z,9.73
2019-01-31T11:03:27.668Z,8.97
2019-01-31T11:06:49.519Z,9.37
2019-01-31T11:09:59.546Z,9.90
2019-01-31T11:13:24.875Z,15.70
2019-01-31T11:16:26.248Z,11.70
2019-01-31T11:19:21.280Z,10.70
2019-01-31T11:22:24.916Z,9.87
2019-01-31T11:25:20.155Z,10.70
2019-01-31T11:28:10.429Z,10.13
2019-01-31T11:31:20.019Z,9.00
2019-01-31T11:34:33.378Z,8.93
2019-01-31T11:37:37.643Z,9.08
2019-01-31T11:40:43.730Z,9.27
2019-01-31T11:43:44.405Z,8.37
2019-01-31T11:46:48.965Z,8.50
2019-01-31T11:49:29.846Z,8.55
2019-01-31T11:52:20.349Z,8.60
2019-01-31T11:54:55.441Z,7.60
2019-01-31T11:57:43.127Z,7.73
2019-01-31T12:00:14.010Z,7.53
2019-01-31T12:02:42.379Z,8.07
2019-01-31T12:05:11.486Z,8.55
2019-01-31T12:07:39.800Z,9.55
2019-01-31T12:10:09.234Z,9.40
2019-01-31T12:12:38.741Z,9.70
2019-01-31T12:15:07.617Z,9.67
2019-01-31T12:17:37.503Z,9.10
2019-01-31T12:20:07.132Z,9.47
2019-01-31T12:22:36.745Z,10.00
2019-01-31T12:25:05.505Z,9.97
2019-01-31T12:27:34.056Z,10.40
2019-01-31T12:30:04.910Z,9.57
2019-01-31T12:32:33.626Z,10.20
2019-01-31T12:35:02.101Z,9.70
2019-01-31T12:37:30.682Z,9.27
2019-01-31T12:39:59.106Z,10.07
2019-01-31T12:42:27.752Z,10.50
2019-01-31T12:44:56.423Z,10.90
2019-01-31T12:47:25.031Z,10.28
2019-01-31T12:49:53.710Z,10.10
2019-01-31T12:52:22.400Z,7.73
2019-01-31T12:54:50.956Z,9.93
2019-01-31T12:57:19.469Z,9.08
2019-01-31T12:59:48.005Z,9.30
2019-01-31T13:02:16.625Z,10.20
2019-01-31T13:04:45.328Z,9.75
2019-01-31T13:07:13.961Z,9.77
2019-01-31T13:09:42.579Z,8.53
2019-01-31T13:12:11.558Z,9.10
2019-01-31T13:14:40.060Z,10.63
2019-01-31T13:17:08.776Z,9.97
2019-01-31T13:19:37.362Z,9.90
2019-01-31T13:22:06.274Z,9.40
2019-01-31T13:24:34.968Z,10.23
2019-01-31T13:27:04.419Z,10.00
2019-01-31T13:29:33.048Z,10.50
2019-01-31T13:32:01.579Z,9.93
2019-01-31T13:34:30.053Z,10.07
2019-01-31T13:36:58.828Z,9.45
2019-01-31T13:39:27.460Z,8.83
2019-01-31T13:41:56.129Z,8.47
2019-01-31T13:44:24.818Z,9.17
2019-01-31T13:46:53.519Z,9.10
2019-01-31T13:49:22.008Z,10.23
2019-01-31T13:51:50.476Z,9.90
2019-01-31T13:54:19.082Z,9.70
2019-01-31T13:56:47.638Z,9.57
2019-01-31T13:59:16.070Z,9.60
2019-01-31T14:01:44.824Z,9.10
2019-01-31T14:04:13.546Z,9.20
2019-01-31T14:06:42.100Z,8.80
2019-01-31T14:09:10.929Z,8.57
2019-01-31T14:11:39.395Z,8.70
2019-01-31T14:14:09.279Z,8.53
2019-01-31T14:16:47.356Z,8.47
2019-01-31T14:19:08.602Z,9.37
2019-01-31T14:21:38.318Z,8.90
2019-01-31T14:24:06.846Z,8.97
2019-01-31T14:26:35.356Z,9.40
2019-01-31T14:29:04.754Z,9.57
2019-01-31T14:31:33.545Z,10.07
2019-01-31T14:34:02.321Z,10.40
2019-01-31T14:36:30.951Z,9.23
2019-01-31T14:39:01.413Z,9.80
2019-01-31T14:41:31.710Z,9.77
2019-01-31T14:44:00.032Z,9.17
2019-01-31T14:46:28.496Z,10.27
2019-01-31T14:48:57.052Z,9.57
2019-01-31T14:51:25.825Z,9.70
2019-01-31T14:53:54.543Z,9.23
2019-01-31T14:56:22.897Z,9.73
2019-01-31T14:58:51.533Z,9.00
2019-01-31T15:01:20.251Z,9.83
2019-01-31T15:03:51.410Z,10.00
2019-01-31T15:06:18.881Z,13.93
2019-01-31T15:08:47.303Z,10.83
2019-01-31T15:11:16.015Z,11.50
2019-01-31T15:13:44.534Z,10.60
2019-01-31T15:16:13.177Z,10.70
2019-01-31T15:18:41.978Z,10.60
2019-01-31T15:21:10.652Z,11.20
2019-01-31T15:23:40.161Z,10.90
2019-01-31T15:26:08.882Z,10.67
2019-01-31T15:28:37.373Z,9.90
2019-01-31T15:31:06.062Z,10.27
2019-01-31T15:33:34.770Z,12.70
2019-01-31T15:36:03.920Z,22.50
2019-01-31T15:38:32.516Z,23.50
2019-01-31T15:41:00.854Z,14.47
2019-01-31T15:43:29.633Z,15.17
2019-01-31T15:45:58.306Z,19.07
2019-01-31T15:48:26.993Z,17.13
2019-01-31T15:50:55.532Z,14.23
2019-01-31T15:53:24.142Z,14.90
2019-01-31T15:55:52.735Z,18.77
2019-01-31T15:58:21.029Z,20.07
2019-01-31T16:00:52.128Z,13.63
2019-01-31T16:03:25.074Z,12.63
2019-01-31T16:05:54.067Z,14.03
2019-01-31T16:08:23.124Z,19.60
2019-01-31T16:10:51.865Z,17.53
2019-01-31T16:13:20.506Z,14.93
2019-01-31T16:15:53.653Z,13.47
2019-01-31T16:18:22.242Z,16.53
2019-01-31T16:20:50.968Z,17.93
2019-01-31T16:23:19.572Z,18.40
2019-01-31T16:25:48.242Z,18.40
2019-01-31T16:28:17.353Z,22.33
2019-01-31T16:30:46.003Z,22.63
2019-01-31T16:33:16.929Z,57.87
2019-01-31T16:35:46.752Z,31.47
2019-01-31T16:38:16.288Z,22.63
2019-01-31T16:40:46.046Z,18.57
2019-01-31T16:43:15.756Z,17.23
2019-01-31T16:45:46.215Z,18.03
2019-01-31T16:48:14.979Z,17.87
2019-01-31T16:50:43.522Z,19.27
2019-01-31T16:53:12.275Z,18.53
2019-01-31T16:55:42.686Z,18.60
2019-01-31T16:58:11.865Z,18.00
2019-01-31T17:00:40.577Z,19.10
2019-01-31T17:03:13.198Z,18.40
2019-01-31T17:05:42.197Z,18.97
2019-01-31T17:08:10.838Z,19.87
2019-01-31T17:10:59.769Z,21.97
2019-01-31T17:13:28.513Z,20.60
2019-01-31T17:16:00.333Z,22.20
2019-01-31T17:18:28.772Z,23.10
2019-01-31T17:20:58.321Z,22.43
2019-01-31T17:23:26.782Z,27.90
2019-01-31T17:25:55.469Z,26.77
2019-01-31T17:28:25.995Z,26.63
2019-01-31T17:30:54.643Z,26.80
2019-01-31T17:33:23.151Z,25.53
2019-01-31T17:35:51.804Z,23.53
2019-01-31T17:38:20.319Z,22.90
2019-01-31T17:40:49.155Z,25.37
2019-01-31T17:43:17.860Z,20.83
2019-01-31T17:45:47.748Z,27.87
2019-01-31T17:48:17.478Z,24.37
2019-01-31T17:50:46.832Z,25.37
2019-01-31T17:53:20.226Z,26.30
2019-01-31T17:55:51.100Z,25.53
2019-01-31T17:58:20.706Z,26.43
2019-01-31T18:00:56.087Z,24.03
2019-01-31T18:03:24.950Z,23.70
2019-01-31T18:05:53.521Z,23.63
2019-01-31T18:08:22.112Z,26.93
2019-01-31T18:10:50.983Z,29.63
2019-01-31T18:13:19.468Z,29.27
2019-01-31T18:15:48.175Z,32.03
2019-01-31T18:18:16.665Z,31.13
2019-01-31T18:20:45.251Z,33.83
2019-01-31T18:23:13.618Z,32.47
2019-01-31T18:25:42.227Z,32.73
2019-01-31T18:28:12.385Z,38.97
2019-01-31T18:30:41.219Z,38.57
2019-01-31T18:33:10.104Z,49.27
2019-01-31T18:35:38.898Z,46.47
2019-01-31T18:38:07.497Z,59.30
2019-01-31T18:40:36.166Z,40.70
2019-01-31T18:43:05.008Z,36.83
2019-01-31T18:45:33.639Z,43.33
2019-01-31T18:48:02.353Z,56.63
2019-01-31T18:50:33.018Z,61.33
2019-01-31T18:53:01.839Z,44.97
2019-01-31T18:55:31.505Z,45.50
2019-01-31T18:58:00.163Z,45.93
2019-01-31T19:00:31.250Z,44.83
2019-01-31T19:02:59.987Z,46.37
2019-01-31T19:05:28.830Z,42.83
2019-01-31T19:07:57.486Z,42.23
2019-01-31T19:10:26.095Z,41.03
2019-01-31T19:12:55.258Z,39.27
2019-01-31T19:15:24.347Z,41.63
2019-01-31T19:18:04.503Z,42.90
2019-01-31T19:20:26.354Z,42.13
2019-01-31T19:22:56.106Z,42.50
2019-01-31T19:25:24.735Z,35.50
2019-01-31T19:27:53.382Z,37.67
2019-01-31T19:30:24.185Z,37.13
2019-01-31T19:32:54.091Z,36.20
2019-01-31T19:35:23.002Z,37.97
2019-01-31T19:38:01.517Z,37.57
2019-01-31T19:40:24.625Z,39.97
2019-01-31T19:42:53.566Z,43.23
2019-01-31T19:45:24.859Z,48.63
2019-01-31T19:47:53.927Z,52.77
2019-01-31T19:50:23.065Z,51.57
2019-01-31T19:52:52.137Z,50.13
2019-01-31T19:55:25.720Z,46.37
2019-01-31T19:58:19.720Z,46.53
2019-01-31T20:00:53.351Z,42.10
2019-01-31T20:03:29.199Z,43.33
2019-01-31T20:05:58.654Z,47.37
2019-01-31T20:08:27.241Z,43.40
2019-01-31T20:10:55.821Z,41.80
2019-01-31T20:13:24.631Z,41.63
2019-01-31T20:15:53.238Z,39.07
2019-01-31T20:18:22.913Z,36.97
2019-01-31T20:20:51.351Z,35.30
2019-01-31T20:23:21.116Z,35.23
2019-01-31T20:25:49.875Z,34.70
2019-01-31T20:28:18.352Z,35.13
2019-01-31T20:30:48.034Z,33.93
2019-01-31T20:33:16.428Z,33.40
2019-01-31T20:35:45.101Z,33.70
2019-01-31T20:38:13.612Z,36.67
2019-01-31T20:40:43.118Z,36.40
2019-01-31T20:43:11.726Z,36.67
2019-01-31T20:45:40.362Z,37.30
2019-01-31T20:48:09.343Z,37.67
2019-01-31T20:50:39.925Z,48.37
2019-01-31T20:53:08.591Z,40.17
2019-01-31T20:55:38.396Z,43.33
2019-01-31T20:58:07.050Z,43.60
2019-01-31T21:00:41.763Z,43.80
2019-01-31T21:03:10.613Z,42.77
2019-01-31T21:05:39.619Z,38.20
2019-01-31T21:08:09.113Z,39.27
2019-01-31T21:10:37.663Z,41.70
2019-01-31T21:13:07.103Z,39.20
2019-01-31T21:15:35.822Z,39.83
2019-01-31T21:18:05.422Z,38.73
2019-01-31T21:20:34.045Z,37.37
2019-01-31T21:23:04.040Z,36.37
2019-01-31T21:25:34.400Z,34.93
2019-01-31T21:28:03.271Z,36.07
2019-01-31T21:30:34.046Z,35.63
2019-01-31T21:33:02.678Z,36.97
2019-01-31T21:35:31.444Z,36.07
2019-01-31T21:38:00.375Z,38.33
2019-01-31T21:40:31.443Z,35.90
2019-01-31T21:43:00.059Z,36.17
2019-01-31T21:45:28.739Z,37.43
2019-01-31T21:47:56.895Z,36.77
2019-01-31T21:50:26.281Z,37.87
2019-01-31T21:52:54.850Z,42.10
2019-01-31T21:55:23.318Z,43.73
2019-01-31T21:57:51.867Z,46.23
2019-01-31T22:00:25.499Z,44.43
2019-01-31T22:02:54.195Z,41.77
2019-01-31T22:05:22.639Z,39.77
2019-01-31T22:07:51.190Z,38.97
2019-01-31T22:10:20.129Z,38.63
2019-01-31T22:12:48.801Z,38.90
2019-01-31T22:15:25.347Z,36.53
2019-01-31T22:17:57.130Z,47.43
2019-01-31T22:20:25.627Z,41.60
2019-01-31T22:22:54.283Z,39.83
2019-01-31T22:25:23.092Z,38.53
2019-01-31T22:27:51.547Z,37.37
2019-01-31T22:30:22.349Z,38.77
2019-01-31T22:32:51.091Z,41.00
2019-01-31T22:35:19.708Z,42.13
2019-01-31T22:37:48.310Z,40.10
2019-01-31T22:40:17.074Z,36.43
2019-01-31T22:42:45.708Z,38.17
2019-01-31T22:45:16.443Z,37.43
2019-01-31T22:47:45.054Z,37.07
2019-01-31T22:50:16.191Z,38.67
2019-01-31T22:52:45.765Z,38.53
2019-01-31T22:55:14.572Z,39.53
2019-01-31T22:57:43.490Z,38.77
2019-01-31T23:00:45.003Z,36.50
2019-01-31T23:03:13.502Z,35.07
2019-01-31T23:05:42.256Z,34.60
2019-01-31T23:08:10.719Z,36.77
2019-01-31T23:10:39.302Z,38.13
2019-01-31T23:13:07.948Z,37.50
2019-01-31T23:15:36.692Z,34.60
2019-01-31T23:18:05.833Z,35.17
2019-01-31T23:20:35.165Z,34.80
2019-01-31T23:23:03.821Z,33.83
2019-01-31T23:25:39.648Z,34.90
2019-01-31T23:28:05.219Z,33.53
2019-01-31T23:30:34.070Z,33.30
2019-01-31T23:33:02.802Z,33.17
2019-01-31T23:35:31.322Z,31.97
2019-01-31T23:38:00.043Z,31.33
2019-01-31T23:40:28.530Z,31.37
2019-01-31T23:42:56.931Z,31.47
2019-01-31T23:45:25.443Z,31.47
2019-01-31T23:47:53.989Z,31.60
2019-01-31T23:50:22.360Z,32.03
2019-01-31T23:52:50.707Z,31.30
2019-01-31T23:55:19.396Z,32.50
2019-01-31T23:57:48.044Z,32.17
